Time;durP1;ratioP1;P1;durP2;ratioP2;P2;SDS_P1;SDS_P2;PMS_P1;PMS_P2;Temp;Humidity;BMP_temperature;BMP_pressure;BME280_temperature;BME280_humidity;BME280_pressure;Samples;Min_cycle;Max_cycle;Signal;HPM_P1;HPM_P2
2023/07/20 00:02:02;;;;;;;9.48;5.13;;;15.40;99.90;;;-144.05;88.59;56891.31;5053284;28;20535;-85
2023/07/20 00:04:28;;;;;;;11.47;6.77;;;15.30;99.90;;;-144.05;88.69;56884.94;5053653;28;20085;-84
2023/07/20 00:06:54;;;;;;;10.32;6.75;;;15.40;99.90;;;-144.05;88.93;56895.56;5053922;28;20620;-83
2023/07/20 00:09:21;;;;;;;12.25;6.43;;;15.40;99.90;;;-144.05;88.88;56880.69;5053676;28;20036;-85
2023/07/20 00:11:53;;;;;;;11.45;6.78;;;15.40;99.90;;;-144.05;89.04;56878.56;5072062;28;20016;-81
2023/07/20 00:14:20;;;;;;;8.95;6.10;;;15.40;99.90;;;-144.05;88.91;56891.31;5061860;28;20045;-83
2023/07/20 00:16:48;;;;;;;10.32;6.40;;;15.40;99.90;;;-144.05;88.81;56870.06;5053499;28;20495;-83
2023/07/20 00:19:16;;;;;;;10.77;7.28;;;15.50;99.90;;;-144.05;88.86;56882.81;5056979;28;20024;-83
2023/07/20 00:21:42;;;;;;;14.90;7.97;;;15.50;99.90;;;-144.05;89.03;56865.81;5075478;28;20059;-85
2023/07/20 00:24:08;;;;;;;13.80;8.48;;;15.50;99.90;;;-144.05;89.12;56859.47;5056896;28;20492;-85
2023/07/20 00:26:34;;;;;;;11.95;8.10;;;15.50;99.90;;;-144.05;89.09;56859.47;5077179;28;20025;-84
2023/07/20 00:29:00;;;;;;;15.00;8.15;;;15.50;99.90;;;-144.05;89.19;56901.94;5095169;28;20039;-85
2023/07/20 00:31:26;;;;;;;14.18;8.45;;;15.50;99.90;;;-144.05;89.36;56870.06;5076945;28;20024;-83
2023/07/20 00:33:52;;;;;;;13.38;8.57;;;15.60;99.90;;;-144.05;89.08;56891.31;5095325;28;20048;-86
2023/07/20 00:36:18;;;;;;;13.45;8.45;;;15.60;99.90;;;-144.05;88.76;56874.31;5076855;28;20111;-83
2023/07/20 00:38:44;;;;;;;10.55;8.18;;;15.60;99.90;;;-144.05;89.00;56880.69;5076652;28;20028;-83
2023/07/20 00:41:10;;;;;;;16.90;8.90;;;15.60;99.90;;;-144.05;89.03;56889.19;5094621;28;20024;-83
2023/07/20 00:43:36;;;;;;;14.48;8.75;;;15.60;99.90;;;-144.05;88.65;56893.44;5076584;28;20032;-83
2023/07/20 00:46:02;;;;;;;15.13;9.13;;;15.60;99.90;;;-144.05;89.00;56878.56;5076662;28;20031;-83
2023/07/20 00:48:30;;;;;;;17.92;10.15;;;15.60;99.90;;;-144.05;89.14;56889.19;5076395;28;20031;-85
2023/07/20 00:51:00;;;;;;;18.40;10.05;;;15.60;99.90;;;-144.05;89.10;56897.69;5077073;28;20057;-83
2023/07/20 00:53:26;;;;;;;17.42;9.77;;;15.60;99.90;;;-144.05;89.18;56889.19;5076639;28;20028;-83
2023/07/20 00:55:52;;;;;;;16.40;9.68;;;15.60;99.90;;;-144.05;89.43;56872.19;5076555;28;20061;-85
2023/07/20 00:58:18;;;;;;;12.55;10.13;;;15.60;99.90;;;-144.05;89.61;56884.94;5076658;28;20472;-82
2023/07/20 01:00:45;;;;;;;15.77;10.43;;;15.60;99.90;;;-144.05;89.63;56857.34;5076145;28;20476;-84
2023/07/20 01:03:11;;;;;;;13.00;9.98;;;15.60;99.90;;;-144.05;89.88;56895.56;5094355;28;20437;-84
2023/07/20 01:06:24;;;;;;;15.52;9.63;;;15.60;99.90;;;-144.05;89.85;56867.94;5075960;28;20032;-82
2023/07/20 01:09:18;;;;;;;15.55;9.93;;;15.50;99.90;;;-144.05;90.07;56878.56;5028731;28;20039;-83
2023/07/20 01:12:06;;;;;;;16.95;10.38;;;15.50;99.90;;;-144.05;90.10;56853.09;5094006;28;20028;-83
2023/07/20 01:14:34;;;;;;;14.82;9.63;;;15.50;99.90;;;-144.05;90.08;56872.19;5076105;28;20020;-82
2023/07/20 01:17:02;;;;;;;11.20;8.98;;;15.50;99.90;;;-144.05;89.61;56899.81;5094273;28;20040;-81
2023/07/20 01:19:27;;;;;;;11.68;7.80;;;15.50;99.90;;;-144.05;89.35;56884.94;5075715;28;20118;-83
2023/07/20 01:22:38;;;;;;;12.95;7.00;;;15.50;99.90;;;-144.05;89.07;56882.81;5075586;28;20470;-84
2023/07/20 01:25:14;;;;;;;12.93;7.63;;;15.50;99.90;;;-144.05;88.97;56889.19;5075483;28;20060;-83
2023/07/20 01:28:23;;;;;;;13.98;6.90;;;15.50;99.90;;;-144.05;88.88;56884.94;5059237;28;20501;-84
2023/07/20 01:31:24;;;;;;;12.48;7.22;;;15.40;99.90;;;-144.05;88.83;56874.31;5055387;28;20039;-83
2023/07/20 01:33:56;;;;;;;11.75;7.65;;;15.40;99.90;;;-144.05;88.56;56857.34;5055793;28;20036;-83
2023/07/20 01:36:26;;;;;;;15.15;8.23;;;15.40;99.90;;;-144.05;88.53;56874.31;5076993;28;20032;-84
2023/07/20 01:38:54;;;;;;;13.80;8.23;;;15.40;99.90;;;-144.05;88.32;56906.19;5056269;28;20024;-83
2023/07/20 01:41:21;;;;;;;11.48;6.90;;;15.40;99.90;;;-144.05;88.40;56874.31;5073745;28;20074;-84
2023/07/20 01:43:47;;;;;;;11.73;8.02;;;15.30;99.90;;;-144.05;88.31;56880.69;5056108;28;20048;-83
2023/07/20 01:46:13;;;;;;;11.18;7.07;;;15.30;99.90;;;-144.05;88.19;56897.69;5073942;28;20035;-83
2023/07/20 01:48:39;;;;;;;13.55;7.75;;;15.30;99.90;;;-144.05;88.29;56870.06;5073879;28;20028;-84
2023/07/20 01:51:05;;;;;;;12.20;7.75;;;15.30;99.90;;;-144.05;88.04;56865.81;5055573;28;20029;-85
2023/07/20 01:53:30;;;;;;;11.40;7.35;;;15.30;99.90;;;-144.05;88.27;56887.06;5055822;28;20028;-85
2023/07/20 01:55:59;;;;;;;13.30;8.25;;;15.40;99.90;;;-144.05;88.09;56908.31;5056102;28;20021;-84
2023/07/20 01:58:25;;;;;;;13.45;8.50;;;15.30;99.90;;;-144.05;87.89;56904.06;5056007;28;20377;-85
2023/07/20 02:00:51;;;;;;;13.77;8.70;;;15.30;99.90;;;-144.05;88.03;56893.44;5056318;28;20032;-85
2023/07/20 02:03:17;;;;;;;15.23;9.32;;;15.30;99.90;;;-144.05;88.02;56880.69;5077039;28;20031;-81
2023/07/20 02:05:43;;;;;;;21.08;9.07;;;15.20;99.90;;;-144.05;88.53;56893.44;5079575;28;20024;-84
2023/07/20 02:08:09;;;;;;;20.80;9.65;;;15.20;99.90;;;-144.05;88.87;56882.81;5055481;28;20048;-83
2023/07/20 02:10:37;;;;;;;14.23;9.50;;;15.10;99.90;;;-144.05;89.33;56906.19;5055416;28;20396;-81
2023/07/20 02:13:02;;;;;;;14.68;10.32;;;15.10;99.90;;;-144.05;89.73;56874.31;5073156;28;20055;-83
2023/07/20 02:15:28;;;;;;;18.45;10.10;;;15.10;99.90;;;-144.05;89.71;56870.06;5054754;28;20467;-83
2023/07/20 02:17:54;;;;;;;15.57;8.82;;;15.00;99.90;;;-144.05;89.02;56880.69;5055134;28;20491;-84
2023/07/20 02:20:21;;;;;;;12.57;8.60;;;15.00;99.90;;;-144.05;88.93;56904.06;5071936;28;20020;-81
2023/07/20 02:22:47;;;;;;;16.90;10.23;;;15.10;99.90;;;-144.05;88.95;56912.56;5055034;28;20192;-82
2023/07/20 02:25:13;;;;;;;13.90;9.23;;;15.00;99.90;;;-144.05;89.03;56895.56;5054998;28;20039;-82
2023/07/20 02:27:39;;;;;;;17.42;9.25;;;15.00;99.90;;;-144.05;89.06;56891.31;5070710;28;20036;-84
2023/07/20 02:30:06;;;;;;;19.67;9.98;;;15.00;99.90;;;-144.05;89.54;56904.06;5074757;28;20051;-84
2023/07/20 02:32:33;;;;;;;18.75;10.75;;;15.00;99.90;;;-144.05;89.94;56870.06;5093112;28;20028;-82
2023/07/20 02:34:59;;;;;;;18.75;11.43;;;15.00;99.90;;;-144.05;90.27;56882.81;5074820;28;20043;-85
2023/07/20 02:37:25;;;;;;;15.68;11.02;;;15.00;99.90;;;-144.05;90.76;56861.56;5074712;28;20032;-85
2023/07/20 02:39:51;;;;;;;19.60;11.88;;;15.00;99.90;;;-144.05;91.73;56906.19;5074454;28;20032;-84
2023/07/20 02:42:17;;;;;;;22.17;10.68;;;14.90;99.90;;;-144.05;91.71;56863.69;5074110;28;20031;-84
2023/07/20 02:44:43;;;;;;;18.77;11.35;;;15.00;99.90;;;-144.05;92.33;56891.31;5074801;28;20028;-86
2023/07/20 02:47:09;;;;;;;22.42;12.00;;;15.00;99.90;;;-144.05;92.96;56876.44;5075240;28;20028;-85
2023/07/20 02:49:35;;;;;;;18.85;12.25;;;14.90;99.90;;;-144.05;92.25;56870.06;5075045;28;20020;-83
2023/07/20 02:52:01;;;;;;;15.70;10.35;;;15.00;99.90;;;-144.05;90.75;56891.31;5092102;28;20026;-84
2023/07/20 02:54:26;;;;;;;18.52;10.45;;;15.00;99.90;;;-144.05;90.31;56887.06;5077768;28;20488;-82
2023/07/20 02:56:52;;;;;;;15.90;9.32;;;15.10;99.90;;;-144.05;90.32;56897.69;5093504;28;20112;-87
2023/07/20 02:59:18;;;;;;;13.10;9.68;;;15.20;99.90;;;-144.05;90.49;56904.06;5075492;28;20058;-86
2023/07/20 03:01:44;;;;;;;13.50;10.15;;;15.20;99.90;;;-144.05;90.41;56897.69;5075503;28;20403;-87
2023/07/20 03:04:10;;;;;;;11.80;8.40;;;15.30;99.90;;;-144.05;90.76;56870.06;5075426;28;20039;-86
2023/07/20 03:06:37;;;;;;;14.35;9.13;;;15.30;99.90;;;-144.05;91.50;56880.69;5075717;28;20455;-88
2023/07/20 03:09:04;;;;;;;15.65;9.02;;;15.40;99.90;;;-144.05;91.07;56880.69;5075839;28;20395;-88
2023/07/20 03:11:32;;;;;;;14.02;9.00;;;15.40;99.90;;;-144.05;91.25;56884.94;5076140;28;20115;-88
2023/07/20 03:13:58;;;;;;;13.52;7.90;;;15.40;99.90;;;-144.05;91.20;56865.81;5076107;28;20109;-89
2023/07/20 03:16:24;;;;;;;12.57;8.60;;;15.40;99.90;;;-144.05;91.43;56865.81;5076141;28;20075;-88
2023/07/20 03:18:51;;;;;;;15.73;10.25;;;15.40;99.90;;;-144.05;91.63;56882.81;5076459;28;20028;-89
2023/07/20 03:21:17;;;;;;;18.10;11.45;;;15.40;99.90;;;-144.05;91.95;56848.84;5076453;28;20039;-88
2023/07/20 03:23:43;;;;;;;18.38;10.82;;;15.30;99.90;;;-144.05;92.04;56870.06;5075906;28;20032;-88
2023/07/20 03:26:09;;;;;;;17.67;10.48;;;15.30;99.90;;;-144.05;92.09;56904.06;5074695;28;20031;-87
2023/07/20 03:28:39;;;;;;;16.60;9.48;;;15.30;99.90;;;-144.05;91.95;56895.56;5075250;28;20444;-87
2023/07/20 03:31:05;;;;;;;18.02;11.02;;;15.30;99.90;;;-144.05;92.19;56906.19;5075264;28;20081;-88
2023/07/20 03:33:33;;;;;;;16.63;9.13;;;15.40;99.90;;;-144.05;92.01;56912.56;5076496;28;20028;-88
2023/07/20 03:36:00;;;;;;;17.65;12.18;;;15.30;99.90;;;-144.05;92.28;56861.56;5077354;28;20137;-88
2023/07/20 03:38:27;;;;;;;17.10;10.57;;;15.30;99.90;;;-144.05;92.38;56901.94;5078545;28;20045;-88
2023/07/20 03:41:00;;;;;;;15.27;10.13;;;15.30;99.90;;;-144.05;92.42;56895.56;5087225;28;20121;-83
2023/07/20 03:43:28;;;;;;;15.77;9.88;;;15.40;99.90;;;-144.05;92.45;56897.69;5099313;28;20039;-85
2023/07/20 03:45:56;;;;;;;22.13;11.15;;;15.40;99.90;;;-144.05;92.71;56882.81;5082320;28;20123;-86
2023/07/20 03:48:25;;;;;;;16.67;10.23;;;15.40;99.90;;;-144.05;92.59;56912.56;5093181;28;20383;-85
2023/07/20 03:50:54;;;;;;;20.05;10.63;;;15.40;99.90;;;-144.05;93.15;56880.69;5075698;28;20028;-87
2023/07/20 03:53:21;;;;;;;17.83;12.30;;;15.40;99.90;;;-144.05;93.02;56893.44;5078415;28;20690;-86
2023/07/20 03:55:52;;;;;;;17.38;11.27;;;15.40;99.90;;;-144.05;93.04;56906.19;5079036;28;20055;-87
2023/07/20 03:58:21;;;;;;;20.48;11.23;;;15.50;99.90;;;-144.05;92.87;56904.06;5101047;28;20016;-84
2023/07/20 04:00:51;;;;;;;19.75;11.70;;;15.40;99.90;;;-144.05;93.40;56878.56;5085030;28;20036;-86
2023/07/20 04:03:19;;;;;;;20.27;14.23;;;15.50;99.90;;;-144.05;93.65;56906.19;5079418;28;20024;-85
2023/07/20 04:05:45;;;;;;;21.83;14.57;;;15.50;99.90;;;-144.05;93.62;56882.81;5079486;28;20126;-86
2023/07/20 04:08:12;;;;;;;16.42;10.90;;;15.50;99.90;;;-144.05;93.32;56880.69;5097611;28;20027;-87
2023/07/20 04:10:39;;;;;;;24.48;14.15;;;15.50;99.90;;;-144.05;93.33;56884.94;5079579;28;20127;-86
2023/07/20 04:13:05;;;;;;;25.65;15.05;;;15.50;99.90;;;-144.05;93.60;56884.94;5079996;28;20198;-86
2023/07/20 04:15:31;;;;;;;25.45;16.88;;;15.60;99.90;;;-144.05;93.62;56891.31;5078906;28;20127;-85
2023/07/20 04:17:57;;;;;;;18.98;13.80;;;15.60;99.90;;;-144.05;93.22;56904.06;5078843;28;20177;-85
2023/07/20 04:20:24;;;;;;;19.05;15.15;;;15.60;99.90;;;-144.05;93.32;56908.31;5078548;28;20076;-86
2023/07/20 04:22:50;;;;;;;18.20;13.05;;;15.60;99.90;;;-144.05;93.22;56891.31;5097229;28;20032;-85
2023/07/20 04:25:18;;;;;;;24.83;17.20;;;15.60;99.90;;;-144.05;93.11;56895.56;5079996;28;20032;-87
2023/07/20 04:27:44;;;;;;;22.70;16.85;;;15.60;99.90;;;-144.05;93.12;56895.56;5097988;28;20063;-89
2023/07/20 04:30:12;;;;;;;27.98;19.40;;;15.70;99.90;;;-144.05;93.29;56906.19;5079905;28;20024;-88
2023/07/20 04:32:45;;;;;;;32.47;20.88;;;15.60;99.90;;;-144.05;93.47;56901.94;5081019;28;20024;-87
2023/07/20 04:35:17;;;;;;;30.33;21.50;;;15.70;99.90;;;-144.05;92.67;56895.56;5081087;28;20152;-87
2023/07/20 04:37:45;;;;;;;24.27;19.35;;;15.60;99.90;;;-144.05;93.14;56880.69;5081191;28;20290;-87
2023/07/20 04:40:16;;;;;;;23.55;17.20;;;15.50;99.90;;;-144.05;93.06;56887.06;5080265;28;20028;-86
2023/07/20 04:42:42;;;;;;;23.00;17.73;;;15.60;99.90;;;-144.05;93.30;56878.56;5079914;28;20024;-87
2023/07/20 04:45:08;;;;;;;25.55;18.73;;;15.50;99.90;;;-144.05;93.08;56882.81;5079616;28;20032;-87
2023/07/20 04:47:34;;;;;;;24.33;17.98;;;15.50;99.90;;;-144.05;92.85;56897.69;5079459;28;20089;-85
2023/07/20 04:50:00;;;;;;;24.92;19.50;;;15.50;99.90;;;-144.05;92.78;56925.28;5078883;28;20410;-85
2023/07/20 04:52:26;;;;;;;21.25;16.33;;;15.50;99.90;;;-144.05;92.89;56891.31;5078719;28;20077;-85
2023/07/20 04:54:52;;;;;;;20.77;16.00;;;15.50;99.90;;;-144.05;92.88;56918.94;5079824;28;20500;-89
2023/07/20 04:57:18;;;;;;;24.50;18.55;;;15.60;99.90;;;-144.05;92.96;56880.69;5080348;28;20255;-87
2023/07/20 04:59:43;;;;;;;24.38;17.90;;;15.60;99.90;;;-144.05;92.32;56912.56;5096205;28;20032;-85
2023/07/20 05:02:09;;;;;;;22.40;16.98;;;15.60;99.90;;;-144.05;92.64;56908.31;5079062;28;20036;-86
2023/07/20 05:04:35;;;;;;;22.67;18.38;;;15.70;99.90;;;-144.05;92.58;56906.19;5078191;28;20520;-85
2023/07/20 05:07:01;;;;;;;24.63;18.05;;;15.70;99.90;;;-144.05;92.35;56876.44;5078646;28;20119;-85
2023/07/20 05:09:27;;;;;;;22.23;16.45;;;15.70;99.90;;;-144.05;92.07;56878.56;5078923;28;20055;-87
2023/07/20 05:11:53;;;;;;;23.27;17.10;;;15.70;99.90;;;-144.05;91.76;56884.94;5079254;28;20475;-85
2023/07/20 05:14:19;;;;;;;19.17;14.38;;;15.70;99.90;;;-144.05;91.31;56914.69;5079310;28;20090;-86
2023/07/20 05:16:45;;;;;;;23.95;14.75;;;15.60;99.90;;;-144.05;90.47;56895.56;5078718;28;20043;-85
2023/07/20 05:19:11;;;;;;;18.33;13.77;;;15.60;99.90;;;-144.05;90.39;56899.81;5095433;28;20460;-85
2023/07/20 05:21:36;;;;;;;13.13;11.55;;;15.70;99.90;;;-144.05;89.96;56872.19;5078262;28;20028;-86
2023/07/20 05:24:03;;;;;;;15.93;12.10;;;15.70;99.90;;;-144.05;89.69;56895.56;5078493;28;20053;-86
2023/07/20 05:26:28;;;;;;;13.10;11.00;;;15.70;99.90;;;-144.05;88.80;56887.06;5078258;28;20137;-86
2023/07/20 05:28:54;;;;;;;13.68;10.25;;;15.60;99.90;;;-144.05;89.54;56887.06;5078338;28;20467;-84
2023/07/20 05:31:20;;;;;;;12.40;10.00;;;15.70;99.90;;;-144.05;89.73;56906.19;5079744;28;20072;-87
2023/07/20 05:33:46;;;;;;;12.55;9.77;;;15.80;99.90;;;-144.05;89.24;56889.19;5079326;28;20024;-85
2023/07/20 05:36:12;;;;;;;12.65;10.57;;;15.70;99.90;;;-144.05;89.33;56876.44;5079427;28;20487;-86
2023/07/20 05:38:38;;;;;;;11.75;9.00;;;15.80;99.90;;;-144.05;89.34;56910.44;5097169;28;20395;-85
2023/07/20 05:41:04;;;;;;;10.95;9.43;;;15.80;99.90;;;-144.05;88.84;56887.06;5061899;28;20028;-86
2023/07/20 05:43:30;;;;;;;12.18;9.80;;;15.80;99.90;;;-144.05;88.82;56897.69;5078408;28;20028;-84
2023/07/20 05:45:56;;;;;;;13.88;8.23;;;15.80;99.90;;;-144.05;88.49;56880.69;5077996;28;20025;-86
2023/07/20 05:48:23;;;;;;;14.45;8.75;;;15.80;99.90;;;-144.05;88.84;56927.41;5078046;28;20120;-87
2023/07/20 05:50:49;;;;;;;15.77;9.80;;;15.70;99.90;;;-144.05;88.42;56914.69;5114825;28;20336;-84
2023/07/20 05:53:15;;;;;;;13.50;9.70;;;15.80;99.90;;;-144.05;88.66;56904.06;5087063;28;20032;-86
2023/07/20 05:55:41;;;;;;;8.65;7.25;;;15.80;99.90;;;-144.05;88.82;56891.31;5079067;28;20529;-86
2023/07/20 05:58:07;;;;;;;10.90;8.88;;;15.90;99.90;;;-144.05;88.42;56908.31;5078184;28;20028;-86
2023/07/20 06:00:33;;;;;;;13.48;9.00;;;15.90;99.90;;;-144.05;88.30;56880.69;5078968;28;20034;-86
2023/07/20 06:02:59;;;;;;;10.18;8.57;;;16.00;99.90;;;-144.05;88.31;56904.06;5080068;28;20115;-85
2023/07/20 06:05:25;;;;;;;14.40;8.25;;;16.00;99.90;;;-144.05;88.52;56891.31;5097228;28;20471;-85
2023/07/20 06:07:51;;;;;;;10.52;8.70;;;16.00;99.90;;;-144.05;88.13;56901.94;5079330;28;20035;-85
2023/07/20 06:10:18;;;;;;;8.90;7.93;;;16.00;99.90;;;-144.05;87.99;56906.19;5077150;28;20028;-83
2023/07/20 06:12:44;;;;;;;9.15;7.38;;;16.10;99.90;;;-144.05;87.64;56921.06;5076702;28;20039;-85
2023/07/20 06:15:28;;;;;;;10.00;7.70;;;16.10;99.90;;;-144.05;87.73;56887.06;5077383;28;20336;-85
2023/07/20 06:17:58;;;;;;;9.02;6.65;;;16.10;99.90;;;-144.05;87.64;56912.56;5077297;28;20043;-85
2023/07/20 06:20:25;;;;;;;12.20;8.02;;;16.20;99.90;;;-144.05;86.77;56887.06;5077682;28;20166;-85
2023/07/20 06:22:51;;;;;;;7.20;5.88;;;16.30;99.90;;;-144.05;86.41;56904.06;5096919;28;20108;-85
2023/07/20 06:25:17;;;;;;;8.63;6.68;;;16.50;99.90;;;-144.05;85.67;56887.06;5078717;28;20028;-84
2023/07/20 06:27:44;;;;;;;7.47;5.30;;;16.70;99.90;;;-144.05;82.32;56914.69;5061270;28;20025;-83
2023/07/20 06:30:11;;;;;;;7.97;5.03;;;16.80;99.90;;;-144.05;81.76;56887.06;5076382;28;20416;-84
2023/07/20 06:32:39;;;;;;;5.38;4.55;;;17.00;99.90;;;-144.05;81.27;56891.31;5056759;28;20036;-83
2023/07/20 06:35:06;;;;;;;7.13;5.00;;;17.20;99.90;;;-144.05;80.17;56906.19;5056920;28;20044;-85
2023/07/20 06:37:32;;;;;;;4.30;3.90;;;17.40;99.90;;;-144.05;80.23;56914.69;5055478;28;20037;-85
2023/07/20 06:39:58;;;;;;;4.32;3.92;;;17.60;99.90;;;-144.05;78.70;56897.69;5056117;28;20040;-85
2023/07/20 06:42:24;;;;;;;5.22;3.78;;;17.70;99.90;;;-144.05;76.91;56889.19;5072360;28;20032;-86
2023/07/20 06:44:50;;;;;;;4.78;3.47;;;17.70;99.90;;;-144.05;75.77;56904.06;5054827;28;20035;-86
2023/07/20 06:47:16;;;;;;;4.63;3.72;;;17.90;99.90;;;-144.05;74.26;56904.06;5055107;28;20025;-84
2023/07/20 06:49:41;;;;;;;3.67;2.90;;;17.90;99.90;;;-144.05;74.28;56880.69;5055075;28;20025;-83
2023/07/20 06:52:07;;;;;;;3.75;2.95;;;18.20;99.90;;;-144.05;72.57;56918.94;5054625;28;20060;-84
2023/07/20 06:54:33;;;;;;;4.25;2.63;;;18.40;99.90;;;-144.05;71.40;56901.94;5072733;28;20089;-84
2023/07/20 06:56:59;;;;;;;3.03;2.75;;;18.40;99.90;;;-144.05;71.11;56921.06;5055199;28;20400;-84
2023/07/20 06:59:25;;;;;;;4.22;2.33;;;18.30;99.90;;;-144.05;70.39;56906.19;5058068;28;20033;-83
2023/07/20 07:01:51;;;;;;;3.30;2.65;;;18.40;99.90;;;-144.05;69.08;56912.56;5065422;28;20067;-85
2023/07/20 07:04:17;;;;;;;2.25;1.70;;;18.60;99.90;;;-144.05;68.40;56933.78;5066782;28;20029;-84
2023/07/20 07:06:44;;;;;;;1.85;1.35;;;19.00;99.90;;;-144.05;62.45;56927.41;5090365;28;20090;-82
2023/07/20 07:09:10;;;;;;;2.35;1.20;;;19.30;99.90;;;-144.05;61.35;56925.28;5094401;28;20044;-85
2023/07/20 07:11:36;;;;;;;1.48;1.10;;;19.80;99.90;;;-144.05;59.94;56950.78;5071804;28;20507;-86
2023/07/20 07:14:01;;;;;;;3.05;1.77;;;20.20;99.90;;;-144.05;59.21;56944.41;5072470;28;20125;-88
2023/07/20 07:16:27;;;;;;;4.50;1.60;;;20.50;99.90;;;-144.05;60.21;56946.53;5073530;28;20025;-86
2023/07/20 07:18:53;;;;;;;4.03;1.83;;;20.60;99.90;;;-144.05;60.33;56946.53;5055850;28;20060;-85
2023/07/20 07:21:19;;;;;;;3.53;1.60;;;20.20;99.90;;;-144.05;61.75;56942.28;5056473;28;20025;-83
2023/07/20 07:23:46;;;;;;;1.83;1.60;;;19.60;99.90;;;-144.05;63.32;56925.28;5064033;28;20027;-86
2023/07/20 07:26:12;;;;;;;3.50;2.33;;;19.00;99.90;;;-144.05;65.49;56929.53;5071097;28;20126;-87
2023/07/20 07:28:38;;;;;;;2.22;1.75;;;18.50;99.90;;;-144.05;67.73;56908.31;5090586;28;20032;-84
2023/07/20 07:31:07;;;;;;;2.55;2.13;;;18.20;99.90;;;-144.05;69.11;56931.66;5073750;28;20037;-85
2023/07/20 07:33:34;;;;;;;4.60;2.40;;;18.00;99.90;;;-144.05;70.35;56946.53;5063633;28;20032;-87
2023/07/20 07:36:00;;;;;;;2.22;2.00;;;17.80;99.90;;;-144.05;71.14;56925.28;5057266;28;20381;-86
2023/07/20 07:38:26;;;;;;;2.33;1.90;;;18.30;99.90;;;-144.05;67.81;56927.41;5077353;28;20146;-85
2023/07/20 07:40:52;;;;;;;3.22;2.15;;;18.80;99.90;;;-144.05;64.22;56935.91;5077849;28;20035;-82
2023/07/20 07:43:20;;;;;;;4.95;2.53;;;19.40;99.90;;;-144.05;60.17;56908.31;5078620;28;20036;-81
2023/07/20 07:45:45;;;;;;;3.47;2.03;;;19.80;99.90;;;-144.05;59.24;56948.66;5059087;28;20047;-83
2023/07/20 07:48:12;;;;;;;2.95;2.33;;;20.20;99.90;;;-144.05;59.23;56933.78;5073051;28;20384;-83
2023/07/20 07:50:40;;;;;;;3.15;1.77;;;20.40;99.90;;;-144.05;57.35;56948.66;5054804;28;20417;-84
2023/07/20 07:53:08;;;;;;;2.85;1.80;;;20.70;99.90;;;-144.05;57.49;56946.53;5055633;28;20024;-83
2023/07/20 07:55:35;;;;;;;3.80;1.42;;;21.00;99.90;;;-144.05;56.03;56929.53;5056738;28;20032;-85
2023/07/20 07:58:01;;;;;;;2.17;1.20;;;21.30;99.90;;;-144.05;56.68;56984.78;5057311;28;20025;-84
2023/07/20 08:00:27;;;;;;;1.88;1.25;;;21.10;99.90;;;-144.05;55.72;56946.53;5056050;28;20043;-84
2023/07/20 08:02:53;;;;;;;3.90;1.05;;;20.50;99.90;;;-144.05;57.33;56948.66;5072469;28;20376;-83
2023/07/20 08:05:18;;;;;;;1.25;0.98;;;20.00;99.90;;;-144.05;58.60;56944.41;5056210;28;20032;-84
2023/07/20 08:07:45;;;;;;;2.85;1.35;;;19.90;99.90;;;-144.05;58.43;56969.91;5071936;28;20028;-82
2023/07/20 08:10:11;;;;;;;4.28;1.48;;;20.40;99.90;;;-144.05;56.91;56942.28;5072960;28;20029;-83
2023/07/20 08:12:37;;;;;;;1.70;1.60;;;20.10;99.90;;;-144.05;56.25;56944.41;5054635;28;20024;-84
2023/07/20 08:15:04;;;;;;;4.35;1.90;;;20.40;99.90;;;-144.05;54.88;56933.78;5055252;28;20392;-83
2023/07/20 08:17:29;;;;;;;3.20;1.30;;;20.70;99.90;;;-144.05;55.24;56961.41;5055307;28;20125;-83
2023/07/20 08:19:55;;;;;;;3.13;1.00;;;21.30;99.90;;;-144.05;53.13;56974.16;5055660;28;20120;-85
2023/07/20 08:22:21;;;;;;;1.88;1.10;;;21.80;99.90;;;-144.05;49.55;56959.28;5055104;28;20435;-84
2023/07/20 08:24:47;;;;;;;2.28;1.40;;;21.70;99.90;;;-144.05;50.32;56961.41;5054734;28;20047;-84
2023/07/20 08:27:13;;;;;;;1.80;1.10;;;21.90;99.90;;;-144.05;49.77;57006.00;5066479;28;20404;-83
2023/07/20 08:29:39;;;;;;;1.08;0.63;;;22.10;99.90;;;-144.05;50.24;56959.28;5074524;28;20178;-83
2023/07/20 08:32:06;;;;;;;1.08;0.80;;;22.10;99.90;;;-144.05;51.59;56993.25;5092388;28;20031;-84
2023/07/20 08:34:32;;;;;;;2.47;1.00;;;21.90;99.90;;;-144.05;47.62;56993.25;5073963;28;20059;-84
2023/07/20 08:36:59;;;;;;;1.38;0.90;;;21.60;99.90;;;-144.05;49.70;56957.16;5091985;28;20067;-82
2023/07/20 08:39:25;;;;;;;1.10;0.77;;;21.10;99.90;;;-144.05;51.43;56980.53;5077864;28;20028;-82
2023/07/20 08:41:51;;;;;;;2.35;0.90;;;20.70;99.90;;;-144.05;53.22;56950.78;5078497;28;20498;-84
2023/07/20 08:44:18;;;;;;;1.08;0.88;;;20.40;99.90;;;-144.05;54.39;56961.41;5078118;28;20062;-83
2023/07/20 08:46:47;;;;;;;1.05;0.85;;;20.20;99.90;;;-144.05;54.84;56961.41;5095773;28;20024;-82
2023/07/20 08:49:17;;;;;;;0.70;0.65;;;20.50;99.90;;;-144.05;51.32;56965.66;5095536;28;20027;-81
2023/07/20 08:51:45;;;;;;;3.20;0.70;;;20.90;99.90;;;-144.05;51.31;56978.41;5077361;28;20028;-81
2023/07/20 08:54:14;;;;;;;1.00;0.70;;;21.40;99.90;;;-144.05;47.74;56993.25;5077574;28;20081;-81
2023/07/20 08:56:45;;;;;;;1.50;0.70;;;21.80;99.90;;;-144.05;47.81;56995.38;5077928;28;20035;-83
2023/07/20 08:59:16;;;;;;;0.52;0.52;;;22.20;99.90;;;-144.05;48.49;56991.13;5078010;28;20145;-83
2023/07/20 09:01:45;;;;;;;2.83;0.70;;;22.20;99.90;;;-144.05;45.73;56993.25;5095956;28;20051;-83
2023/07/20 09:04:12;;;;;;;1.27;0.68;;;22.50;99.90;;;-144.05;44.60;57025.13;5097209;28;20028;-84
2023/07/20 09:06:38;;;;;;;1.40;0.60;;;22.70;99.90;;;-144.05;43.06;57031.50;5078068;28;20024;-82
2023/07/20 09:09:05;;;;;;;2.78;0.82;;;22.80;99.90;;;-144.05;43.28;57018.75;5096476;28;20438;-84
2023/07/20 09:11:30;;;;;;;0.63;0.60;;;23.20;99.90;;;-144.05;43.34;57033.63;5079625;28;20123;-84
2023/07/20 09:14:06;;;;;;;0.55;0.43;;;23.40;99.90;;;-144.05;40.66;57001.75;5098823;28;20153;-84
2023/07/20 09:16:32;;;;;;;;;;;22.50;99.90;;;-144.05;43.50;57006.00;5100456;28;20086;-82
2023/07/20 09:18:59;;;;;;;0.40;0.40;;;22.20;99.90;;;-144.05;42.43;56984.78;5081500;28;20368;-81
2023/07/20 09:21:30;;;;;;;0.95;0.30;;;22.20;99.90;;;-144.05;42.48;57006.00;5080582;28;20032;-82
2023/07/20 09:23:59;;;;;;;0.80;0.43;;;22.60;99.90;;;-144.05;40.31;57016.63;5097064;28;20474;-80
2023/07/20 09:26:25;;;;;;;1.58;0.40;;;22.70;99.90;;;-144.05;39.25;57025.13;5093246;28;20037;-84
2023/07/20 09:28:55;;;;;;;0.70;0.30;;;23.00;99.90;;;-144.05;39.18;57029.38;5059606;28;20046;-86
2023/07/20 09:31:22;;;;;;;3.33;0.50;;;23.30;99.90;;;-144.05;38.18;57056.97;5080497;28;20021;-80
2023/07/20 09:33:52;;;;;;;1.13;0.50;;;23.50;99.90;;;-144.05;37.84;57018.75;5080752;28;20024;-82
2023/07/20 09:36:18;;;;;;;0.52;0.40;;;23.60;99.90;;;-144.05;39.27;57012.38;5060161;28;20044;-82
2023/07/20 09:38:45;;;;;;;0.63;0.50;;;23.80;99.90;;;-144.05;39.21;57031.50;5058966;28;20021;-83
2023/07/20 09:41:18;;;;;;;0.88;0.40;;;23.60;99.90;;;-144.05;37.63;57020.88;5058110;28;20059;-81
2023/07/20 09:43:46;;;;;;;0.50;0.30;;;23.70;99.90;;;-144.05;37.30;57056.97;5058506;28;20373;-83
2023/07/20 09:46:12;;;;;;;0.95;0.63;;;23.90;99.90;;;-144.05;39.76;57040.00;5077121;28;20500;-84
2023/07/20 09:48:38;;;;;;;1.08;0.63;;;24.20;99.90;;;-144.05;38.40;57029.38;5076491;28;20119;-84
2023/07/20 09:51:06;;;;;;;0.52;0.50;;;24.20;99.90;;;-144.05;38.48;57067.59;5076867;28;20039;-83
2023/07/20 09:53:34;;;;;;;3.20;0.55;;;24.40;99.90;;;-144.05;38.15;57063.34;5059256;28;20021;-83
2023/07/20 09:56:02;;;;;;;0.32;0.32;;;24.60;99.90;;;-144.05;36.24;57052.75;5076684;28;20028;-84
2023/07/20 09:58:29;;;;;;;0.60;0.55;;;24.70;99.90;;;-144.05;36.48;57056.97;5075574;28;20029;-84
2023/07/20 10:01:00;;;;;;;0.38;0.30;;;24.60;99.90;;;-144.05;34.93;57042.13;5058678;28;20028;-82
2023/07/20 10:03:30;;;;;;;1.75;0.32;;;24.70;99.90;;;-144.05;33.75;57061.22;5076039;28;20039;-85